sensor_id;sensor_type;location;lat;lon;timestamp;temperature;humidity
72883;DHT22;61017;37.812;-122.286;2023-02-03T00:00:17;14.10;69.30
72883;DHT22;61017;37.812;-122.286;2023-02-03T00:01:48;14.10;69.40
72883;DHT22;61017;37.812;-122.286;2023-02-03T00:03:19;14.20;69.50
72883;DHT22;61017;37.812;-122.286;2023-02-03T00:04:50;14.20;69.50
72883;DHT22;61017;37.812;-122.286;2023-02-03T00:06:21;14.10;69.40
72883;DHT22;61017;37.812;-122.286;2023-02-03T00:07:52;14.20;69.40
72883;DHT22;61017;37.812;-122.286;2023-02-03T00:09:23;14.20;69.50
72883;DHT22;61017;37.812;-122.286;2023-02-03T00:10:55;14.20;69.50
72883;DHT22;61017;37.812;-122.286;2023-02-03T00:12:26;14.20;69.60
72883;DHT22;61017;37.812;-122.286;2023-02-03T00:13:58;14.20;69.50
72883;DHT22;61017;37.812;-122.286;2023-02-03T00:15:29;14.20;69.50
72883;DHT22;61017;37.812;-122.286;2023-02-03T00:17:00;14.20;69.50
72883;DHT22;61017;37.812;-122.286;2023-02-03T00:18:31;14.20;69.50
72883;DHT22;61017;37.812;-122.286;2023-02-03T00:20:02;14.20;69.50
72883;DHT22;61017;37.812;-122.286;2023-02-03T00:21:33;14.20;69.50
72883;DHT22;61017;37.812;-122.286;2023-02-03T00:23:05;14.20;69.50
72883;DHT22;61017;37.812;-122.286;2023-02-03T00:24:37;14.20;69.50
72883;DHT22;61017;37.812;-122.286;2023-02-03T00:26:09;14.10;70.20
72883;DHT22;61017;37.812;-122.286;2023-02-03T00:27:40;14.20;69.50
72883;DHT22;61017;37.812;-122.286;2023-02-03T00:29:11;14.20;69.50
72883;DHT22;61017;37.812;-122.286;2023-02-03T00:30:42;14.20;69.50
72883;DHT22;61017;37.812;-122.286;2023-02-03T00:32:13;14.10;69.30
72883;DHT22;61017;37.812;-122.286;2023-02-03T00:33:44;14.10;69.20
72883;DHT22;61017;37.812;-122.286;2023-02-03T00:35:15;14.20;69.20
72883;DHT22;61017;37.812;-122.286;2023-02-03T00:36:46;14.20;69.30
72883;DHT22;61017;37.812;-122.286;2023-02-03T00:38:17;14.10;69.40
72883;DHT22;61017;37.812;-122.286;2023-02-03T00:39:48;14.10;69.30
72883;DHT22;61017;37.812;-122.286;2023-02-03T00:41:20;14.10;69.00
72883;DHT22;61017;37.812;-122.286;2023-02-03T00:42:51;14.10;69.10
72883;DHT22;61017;37.812;-122.286;2023-02-03T00:44:22;14.10;69.40
72883;DHT22;61017;37.812;-122.286;2023-02-03T00:45:53;14.10;69.40
72883;DHT22;61017;37.812;-122.286;2023-02-03T00:47:25;14.10;69.40
72883;DHT22;61017;37.812;-122.286;2023-02-03T00:48:56;14.10;69.40
72883;DHT22;61017;37.812;-122.286;2023-02-03T00:50:27;14.10;69.40
72883;DHT22;61017;37.812;-122.286;2023-02-03T00:51:58;14.10;69.40
72883;DHT22;61017;37.812;-122.286;2023-02-03T00:53:29;14.10;69.40
72883;DHT22;61017;37.812;-122.286;2023-02-03T00:55:00;14.20;69.50
72883;DHT22;61017;37.812;-122.286;2023-02-03T00:56:31;14.10;69.40
72883;DHT22;61017;37.812;-122.286;2023-02-03T00:58:02;14.20;69.30
72883;DHT22;61017;37.812;-122.286;2023-02-03T00:59:33;14.20;69.50
72883;DHT22;61017;37.812;-122.286;2023-02-03T01:01:05;14.10;69.40
72883;DHT22;61017;37.812;-122.286;2023-02-03T01:02:36;14.20;69.50
72883;DHT22;61017;37.812;-122.286;2023-02-03T01:04:07;14.20;69.50
72883;DHT22;61017;37.812;-122.286;2023-02-03T01:05:38;14.20;69.60
72883;DHT22;61017;37.812;-122.286;2023-02-03T01:07:09;14.20;69.50
72883;DHT22;61017;37.812;-122.286;2023-02-03T01:08:41;14.10;69.50
72883;DHT22;61017;37.812;-122.286;2023-02-03T01:10:12;14.10;69.50
72883;DHT22;61017;37.812;-122.286;2023-02-03T01:11:43;14.20;69.70
72883;DHT22;61017;37.812;-122.286;2023-02-03T01:13:14;14.20;69.50
72883;DHT22;61017;37.812;-122.286;2023-02-03T01:14:45;14.20;69.60
72883;DHT22;61017;37.812;-122.286;2023-02-03T01:16:17;14.10;69.60
72883;DHT22;61017;37.812;-122.286;2023-02-03T01:17:48;14.20;69.70
72883;DHT22;61017;37.812;-122.286;2023-02-03T01:19:19;14.20;69.50
72883;DHT22;61017;37.812;-122.286;2023-02-03T01:20:50;14.20;69.50
72883;DHT22;61017;37.812;-122.286;2023-02-03T01:22:21;14.20;69.50
72883;DHT22;61017;37.812;-122.286;2023-02-03T01:23:53;14.20;69.50
72883;DHT22;61017;37.812;-122.286;2023-02-03T01:25:25;14.20;69.60
72883;DHT22;61017;37.812;-122.286;2023-02-03T01:26:56;14.20;69.60
72883;DHT22;61017;37.812;-122.286;2023-02-03T01:28:27;14.20;69.60
72883;DHT22;61017;37.812;-122.286;2023-02-03T01:29:58;14.20;69.60
72883;DHT22;61017;37.812;-122.286;2023-02-03T01:31:30;14.10;69.40
72883;DHT22;61017;37.812;-122.286;2023-02-03T01:33:01;14.20;70.40
72883;DHT22;61017;37.812;-122.286;2023-02-03T01:34:32;14.10;69.50
72883;DHT22;61017;37.812;-122.286;2023-02-03T01:36:04;14.20;69.60
72883;DHT22;61017;37.812;-122.286;2023-02-03T01:37:35;14.10;69.50
72883;DHT22;61017;37.812;-122.286;2023-02-03T01:39:06;14.20;69.70
72883;DHT22;61017;37.812;-122.286;2023-02-03T01:40:43;14.20;69.60
72883;DHT22;61017;37.812;-122.286;2023-02-03T01:42:14;14.10;69.40
72883;DHT22;61017;37.812;-122.286;2023-02-03T01:43:47;14.20;69.50
72883;DHT22;61017;37.812;-122.286;2023-02-03T01:45:18;14.20;69.50
72883;DHT22;61017;37.812;-122.286;2023-02-03T01:46:49;14.10;69.60
72883;DHT22;61017;37.812;-122.286;2023-02-03T01:48:21;14.20;69.80
72883;DHT22;61017;37.812;-122.286;2023-02-03T01:49:56;14.10;69.80
72883;DHT22;61017;37.812;-122.286;2023-02-03T01:51:29;14.10;69.90
72883;DHT22;61017;37.812;-122.286;2023-02-03T01:53:10;14.20;70.10
72883;DHT22;61017;37.812;-122.286;2023-02-03T01:54:42;14.20;70.10
72883;DHT22;61017;37.812;-122.286;2023-02-03T01:56:14;14.10;70.00
72883;DHT22;61017;37.812;-122.286;2023-02-03T01:57:46;14.20;69.90
72883;DHT22;61017;37.812;-122.286;2023-02-03T01:59:18;14.20;70.00
72883;DHT22;61017;37.812;-122.286;2023-02-03T02:00:51;14.20;69.80
72883;DHT22;61017;37.812;-122.286;2023-02-03T02:02:23;14.20;69.80
72883;DHT22;61017;37.812;-122.286;2023-02-03T02:03:55;14.20;70.00
72883;DHT22;61017;37.812;-122.286;2023-02-03T02:05:29;14.20;70.00
72883;DHT22;61017;37.812;-122.286;2023-02-03T02:07:02;14.20;69.90
72883;DHT22;61017;37.812;-122.286;2023-02-03T02:08:34;14.20;70.00
72883;DHT22;61017;37.812;-122.286;2023-02-03T02:10:05;14.20;70.10
72883;DHT22;61017;37.812;-122.286;2023-02-03T02:11:36;14.20;70.20
72883;DHT22;61017;37.812;-122.286;2023-02-03T02:13:07;14.20;70.10
72883;DHT22;61017;37.812;-122.286;2023-02-03T02:14:39;14.20;70.10
72883;DHT22;61017;37.812;-122.286;2023-02-03T02:23:01;14.20;70.20
72883;DHT22;61017;37.812;-122.286;2023-02-03T02:24:55;14.10;70.00
72883;DHT22;61017;37.812;-122.286;2023-02-03T02:28:13;14.10;70.90
72883;DHT22;61017;37.812;-122.286;2023-02-03T02:35:31;14.20;70.20
72883;DHT22;61017;37.812;-122.286;2023-02-03T02:38:46;14.20;70.30
72883;DHT22;61017;37.812;-122.286;2023-02-03T02:42:22;14.10;70.20
72883;DHT22;61017;37.812;-122.286;2023-02-03T02:43:59;14.20;70.20
72883;DHT22;61017;37.812;-122.286;2023-02-03T02:47:18;14.20;70.50
72883;DHT22;61017;37.812;-122.286;2023-02-03T02:50:23;14.20;70.50
72883;DHT22;61017;37.812;-122.286;2023-02-03T02:51:56;14.10;70.50
72883;DHT22;61017;37.812;-122.286;2023-02-03T02:53:30;14.20;70.40
72883;DHT22;61017;37.812;-122.286;2023-02-03T02:55:04;14.20;70.40
72883;DHT22;61017;37.812;-122.286;2023-02-03T02:56:37;14.20;70.30
72883;DHT22;61017;37.812;-122.286;2023-02-03T02:58:10;14.20;71.00
72883;DHT22;61017;37.812;-122.286;2023-02-03T02:59:43;14.20;70.30
72883;DHT22;61017;37.812;-122.286;2023-02-03T03:01:15;14.20;70.40
72883;DHT22;61017;37.812;-122.286;2023-02-03T03:02:46;14.20;70.40
72883;DHT22;61017;37.812;-122.286;2023-02-03T03:04:19;14.20;70.30
72883;DHT22;61017;37.812;-122.286;2023-02-03T03:05:54;14.10;70.30
72883;DHT22;61017;37.812;-122.286;2023-02-03T03:07:26;14.20;70.10
72883;DHT22;61017;37.812;-122.286;2023-02-03T03:09:05;14.20;70.00
72883;DHT22;61017;37.812;-122.286;2023-02-03T03:10:37;14.20;70.10
72883;DHT22;61017;37.812;-122.286;2023-02-03T03:12:15;14.20;70.20
72883;DHT22;61017;37.812;-122.286;2023-02-03T03:13:48;14.20;70.30
72883;DHT22;61017;37.812;-122.286;2023-02-03T03:15:22;14.20;70.30
72883;DHT22;61017;37.812;-122.286;2023-02-03T03:17:14;14.20;70.30
72883;DHT22;61017;37.812;-122.286;2023-02-03T03:18:48;14.20;70.20
72883;DHT22;61017;37.812;-122.286;2023-02-03T03:20:23;14.20;70.20
72883;DHT22;61017;37.812;-122.286;2023-02-03T03:21:56;14.20;70.20
72883;DHT22;61017;37.812;-122.286;2023-02-03T03:23:29;14.20;70.10
72883;DHT22;61017;37.812;-122.286;2023-02-03T03:25:04;14.20;70.10
72883;DHT22;61017;37.812;-122.286;2023-02-03T03:28:12;14.20;69.90
72883;DHT22;61017;37.812;-122.286;2023-02-03T03:30:17;14.20;69.80
72883;DHT22;61017;37.812;-122.286;2023-02-03T03:31:40;14.20;69.70
72883;DHT22;61017;37.812;-122.286;2023-02-03T03:33:12;14.20;69.60
72883;DHT22;61017;37.812;-122.286;2023-02-03T03:34:43;14.20;69.80
72883;DHT22;61017;37.812;-122.286;2023-02-03T03:36:19;14.20;70.00
72883;DHT22;61017;37.812;-122.286;2023-02-03T03:41:14;14.20;69.50
72883;DHT22;61017;37.812;-122.286;2023-02-03T03:42:53;14.20;70.30
72883;DHT22;61017;37.812;-122.286;2023-02-03T03:44:27;14.20;69.50
72883;DHT22;61017;37.812;-122.286;2023-02-03T03:46:01;14.20;69.50
72883;DHT22;61017;37.812;-122.286;2023-02-03T03:47:37;14.20;69.50
72883;DHT22;61017;37.812;-122.286;2023-02-03T03:49:09;14.20;69.50
72883;DHT22;61017;37.812;-122.286;2023-02-03T03:50:52;14.20;69.50
72883;DHT22;61017;37.812;-122.286;2023-02-03T03:52:27;14.20;69.50
72883;DHT22;61017;37.812;-122.286;2023-02-03T03:54:01;14.20;69.40
72883;DHT22;61017;37.812;-122.286;2023-02-03T03:55:34;14.20;69.10
72883;DHT22;61017;37.812;-122.286;2023-02-03T03:57:12;14.20;69.00
72883;DHT22;61017;37.812;-122.286;2023-02-03T03:58:45;14.20;68.90
72883;DHT22;61017;37.812;-122.286;2023-02-03T04:00:17;14.20;68.90
72883;DHT22;61017;37.812;-122.286;2023-02-03T04:01:49;14.20;68.70
72883;DHT22;61017;37.812;-122.286;2023-02-03T04:03:24;14.20;68.60
72883;DHT22;61017;37.812;-122.286;2023-02-03T04:04:58;14.20;68.50
72883;DHT22;61017;37.812;-122.286;2023-02-03T04:06:29;14.20;68.50
72883;DHT22;61017;37.812;-122.286;2023-02-03T04:08:01;14.20;68.30
72883;DHT22;61017;37.812;-122.286;2023-02-03T04:09:32;14.20;68.10
72883;DHT22;61017;37.812;-122.286;2023-02-03T04:11:03;14.20;68.30
72883;DHT22;61017;37.812;-122.286;2023-02-03T04:12:34;14.20;68.50
72883;DHT22;61017;37.812;-122.286;2023-02-03T04:14:05;14.20;68.50
72883;DHT22;61017;37.812;-122.286;2023-02-03T04:15:36;14.20;68.70
72883;DHT22;61017;37.812;-122.286;2023-02-03T04:17:08;14.20;68.60
72883;DHT22;61017;37.812;-122.286;2023-02-03T04:18:39;14.20;68.50
72883;DHT22;61017;37.812;-122.286;2023-02-03T04:20:10;14.20;68.40
72883;DHT22;61017;37.812;-122.286;2023-02-03T04:21:41;14.20;68.30
72883;DHT22;61017;37.812;-122.286;2023-02-03T04:23:12;14.20;68.20
72883;DHT22;61017;37.812;-122.286;2023-02-03T04:24:44;14.20;67.80
72883;DHT22;61017;37.812;-122.286;2023-02-03T04:26:15;14.20;67.40
72883;DHT22;61017;37.812;-122.286;2023-02-03T04:27:46;14.20;67.60
72883;DHT22;61017;37.812;-122.286;2023-02-03T04:29:17;14.20;67.60
72883;DHT22;61017;37.812;-122.286;2023-02-03T04:30:48;14.20;67.50
72883;DHT22;61017;37.812;-122.286;2023-02-03T04:32:19;14.20;67.80
72883;DHT22;61017;37.812;-122.286;2023-02-03T04:33:50;14.20;67.80
72883;DHT22;61017;37.812;-122.286;2023-02-03T04:35:21;14.20;67.90
72883;DHT22;61017;37.812;-122.286;2023-02-03T04:36:52;14.20;67.90
72883;DHT22;61017;37.812;-122.286;2023-02-03T04:38:23;14.20;67.70
72883;DHT22;61017;37.812;-122.286;2023-02-03T04:39:54;14.20;67.90
72883;DHT22;61017;37.812;-122.286;2023-02-03T04:41:26;14.20;67.80
72883;DHT22;61017;37.812;-122.286;2023-02-03T04:42:57;14.20;67.80
72883;DHT22;61017;37.812;-122.286;2023-02-03T04:44:28;14.20;67.70
72883;DHT22;61017;37.812;-122.286;2023-02-03T04:45:59;14.20;67.80
72883;DHT22;61017;37.812;-122.286;2023-02-03T04:47:30;14.20;67.80
72883;DHT22;61017;37.812;-122.286;2023-02-03T04:49:01;14.20;67.80
72883;DHT22;61017;37.812;-122.286;2023-02-03T04:50:32;14.20;67.90
72883;DHT22;61017;37.812;-122.286;2023-02-03T04:52:04;14.20;67.70
72883;DHT22;61017;37.812;-122.286;2023-02-03T04:53:35;14.20;67.80
72883;DHT22;61017;37.812;-122.286;2023-02-03T04:55:06;14.20;68.00
72883;DHT22;61017;37.812;-122.286;2023-02-03T04:56:37;14.20;68.00
72883;DHT22;61017;37.812;-122.286;2023-02-03T04:58:08;14.20;67.90
72883;DHT22;61017;37.812;-122.286;2023-02-03T04:59:40;14.20;68.00
72883;DHT22;61017;37.812;-122.286;2023-02-03T05:01:11;14.20;68.00
72883;DHT22;61017;37.812;-122.286;2023-02-03T05:02:42;14.20;68.20
72883;DHT22;61017;37.812;-122.286;2023-02-03T05:04:13;14.20;68.20
72883;DHT22;61017;37.812;-122.286;2023-02-03T05:05:44;14.20;68.20
72883;DHT22;61017;37.812;-122.286;2023-02-03T05:07:15;14.20;68.30
72883;DHT22;61017;37.812;-122.286;2023-02-03T05:08:46;14.20;68.30
72883;DHT22;61017;37.812;-122.286;2023-02-03T05:10:17;14.20;68.20
72883;DHT22;61017;37.812;-122.286;2023-02-03T05:11:49;14.20;68.50
72883;DHT22;61017;37.812;-122.286;2023-02-03T05:13:20;14.20;68.70
72883;DHT22;61017;37.812;-122.286;2023-02-03T05:14:51;14.20;68.80
72883;DHT22;61017;37.812;-122.286;2023-02-03T05:16:23;14.20;68.60
72883;DHT22;61017;37.812;-122.286;2023-02-03T05:17:54;14.20;68.60
72883;DHT22;61017;37.812;-122.286;2023-02-03T05:19:25;14.20;68.60
72883;DHT22;61017;37.812;-122.286;2023-02-03T05:20:56;14.20;68.20
72883;DHT22;61017;37.812;-122.286;2023-02-03T05:22:27;14.20;68.30
72883;DHT22;61017;37.812;-122.286;2023-02-03T05:23:58;14.20;68.20
72883;DHT22;61017;37.812;-122.286;2023-02-03T05:25:30;14.20;68.20
72883;DHT22;61017;37.812;-122.286;2023-02-03T05:27:01;14.20;68.10
72883;DHT22;61017;37.812;-122.286;2023-02-03T05:28:32;14.20;67.90
72883;DHT22;61017;37.812;-122.286;2023-02-03T05:30:04;14.20;67.80
72883;DHT22;61017;37.812;-122.286;2023-02-03T05:31:35;14.20;68.10
72883;DHT22;61017;37.812;-122.286;2023-02-03T05:33:06;14.20;67.90
72883;DHT22;61017;37.812;-122.286;2023-02-03T05:34:37;14.20;68.00
72883;DHT22;61017;37.812;-122.286;2023-02-03T05:36:08;14.20;67.60
72883;DHT22;61017;37.812;-122.286;2023-02-03T05:37:39;14.20;67.60
72883;DHT22;61017;37.812;-122.286;2023-02-03T05:39:13;14.20;68.50
72883;DHT22;61017;37.812;-122.286;2023-02-03T05:40:46;14.20;67.90
72883;DHT22;61017;37.812;-122.286;2023-02-03T05:42:17;14.20;68.10
72883;DHT22;61017;37.812;-122.286;2023-02-03T05:43:48;14.20;68.10
72883;DHT22;61017;37.812;-122.286;2023-02-03T05:45:19;14.20;68.30
72883;DHT22;61017;37.812;-122.286;2023-02-03T05:46:51;14.20;68.30
72883;DHT22;61017;37.812;-122.286;2023-02-03T05:48:23;14.20;68.30
72883;DHT22;61017;37.812;-122.286;2023-02-03T05:49:54;14.20;68.40
72883;DHT22;61017;37.812;-122.286;2023-02-03T05:51:25;14.20;68.40
72883;DHT22;61017;37.812;-122.286;2023-02-03T05:52:56;14.20;68.40
72883;DHT22;61017;37.812;-122.286;2023-02-03T05:54:27;14.20;68.30
72883;DHT22;61017;37.812;-122.286;2023-02-03T05:55:58;14.20;68.30
72883;DHT22;61017;37.812;-122.286;2023-02-03T05:57:29;14.20;68.30
72883;DHT22;61017;37.812;-122.286;2023-02-03T05:59:00;14.20;68.30
72883;DHT22;61017;37.812;-122.286;2023-02-03T06:00:31;14.20;68.60
72883;DHT22;61017;37.812;-122.286;2023-02-03T06:02:02;14.20;68.50
72883;DHT22;61017;37.812;-122.286;2023-02-03T06:03:33;14.20;68.50
72883;DHT22;61017;37.812;-122.286;2023-02-03T06:05:04;14.20;68.50
72883;DHT22;61017;37.812;-122.286;2023-02-03T06:06:36;14.20;68.50
72883;DHT22;61017;37.812;-122.286;2023-02-03T06:08:08;14.20;68.50
72883;DHT22;61017;37.812;-122.286;2023-02-03T06:09:39;14.20;68.40
72883;DHT22;61017;37.812;-122.286;2023-02-03T06:11:10;14.20;68.50
72883;DHT22;61017;37.812;-122.286;2023-02-03T06:12:41;14.20;69.10
72883;DHT22;61017;37.812;-122.286;2023-02-03T06:14:12;14.20;68.20
72883;DHT22;61017;37.812;-122.286;2023-02-03T06:15:44;14.20;68.20
72883;DHT22;61017;37.812;-122.286;2023-02-03T06:17:15;14.20;68.00
72883;DHT22;61017;37.812;-122.286;2023-02-03T06:18:46;14.20;68.00
72883;DHT22;61017;37.812;-122.286;2023-02-03T06:20:18;14.20;67.90
72883;DHT22;61017;37.812;-122.286;2023-02-03T06:21:49;14.20;68.00
72883;DHT22;61017;37.812;-122.286;2023-02-03T06:23:20;14.20;68.00
72883;DHT22;61017;37.812;-122.286;2023-02-03T06:24:51;14.20;68.10
72883;DHT22;61017;37.812;-122.286;2023-02-03T06:26:22;14.20;68.10
72883;DHT22;61017;37.812;-122.286;2023-02-03T06:27:54;14.20;67.80
72883;DHT22;61017;37.812;-122.286;2023-02-03T06:29:25;14.20;67.80
72883;DHT22;61017;37.812;-122.286;2023-02-03T06:30:56;14.20;67.60
72883;DHT22;61017;37.812;-122.286;2023-02-03T06:32:27;14.20;67.50
72883;DHT22;61017;37.812;-122.286;2023-02-03T06:33:58;14.20;67.70
72883;DHT22;61017;37.812;-122.286;2023-02-03T06:35:29;14.20;67.80
72883;DHT22;61017;37.812;-122.286;2023-02-03T06:37:00;14.20;67.80
72883;DHT22;61017;37.812;-122.286;2023-02-03T06:38:31;14.20;67.50
72883;DHT22;61017;37.812;-122.286;2023-02-03T06:40:03;14.20;67.60
72883;DHT22;61017;37.812;-122.286;2023-02-03T06:41:34;14.20;67.60
72883;DHT22;61017;37.812;-122.286;2023-02-03T06:43:05;14.20;67.70
72883;DHT22;61017;37.812;-122.286;2023-02-03T06:44:36;14.20;67.70
72883;DHT22;61017;37.812;-122.286;2023-02-03T06:46:07;14.20;67.50
72883;DHT22;61017;37.812;-122.286;2023-02-03T06:47:39;14.20;67.60
72883;DHT22;61017;37.812;-122.286;2023-02-03T06:49:10;14.20;67.70
72883;DHT22;61017;37.812;-122.286;2023-02-03T06:50:41;14.20;67.90
72883;DHT22;61017;37.812;-122.286;2023-02-03T06:52:12;14.20;67.80
72883;DHT22;61017;37.812;-122.286;2023-02-03T06:53:43;14.20;68.00
72883;DHT22;61017;37.812;-122.286;2023-02-03T06:55:14;14.20;67.90
72883;DHT22;61017;37.812;-122.286;2023-02-03T06:56:45;14.20;67.40
72883;DHT22;61017;37.812;-122.286;2023-02-03T06:58:16;14.20;67.30
72883;DHT22;61017;37.812;-122.286;2023-02-03T06:59:47;14.20;67.40
72883;DHT22;61017;37.812;-122.286;2023-02-03T07:01:18;14.20;67.50
72883;DHT22;61017;37.812;-122.286;2023-02-03T07:02:53;14.20;67.10
72883;DHT22;61017;37.812;-122.286;2023-02-03T07:04:24;14.20;66.80
72883;DHT22;61017;37.812;-122.286;2023-02-03T07:05:55;14.20;66.80
72883;DHT22;61017;37.812;-122.286;2023-02-03T07:07:28;14.20;66.50
72883;DHT22;61017;37.812;-122.286;2023-02-03T07:09:03;14.20;66.20
72883;DHT22;61017;37.812;-122.286;2023-02-03T07:10:34;14.20;66.10
72883;DHT22;61017;37.812;-122.286;2023-02-03T07:12:05;14.20;66.10
72883;DHT22;61017;37.812;-122.286;2023-02-03T07:13:37;14.20;66.30
72883;DHT22;61017;37.812;-122.286;2023-02-03T07:15:08;14.20;66.50
72883;DHT22;61017;37.812;-122.286;2023-02-03T07:16:39;14.20;66.50
72883;DHT22;61017;37.812;-122.286;2023-02-03T07:18:10;14.20;66.60
72883;DHT22;61017;37.812;-122.286;2023-02-03T07:19:41;14.20;66.60
72883;DHT22;61017;37.812;-122.286;2023-02-03T07:21:12;14.20;66.60
72883;DHT22;61017;37.812;-122.286;2023-02-03T07:22:44;14.20;67.60
72883;DHT22;61017;37.812;-122.286;2023-02-03T07:24:15;14.20;66.70
72883;DHT22;61017;37.812;-122.286;2023-02-03T07:25:46;14.20;66.70
72883;DHT22;61017;37.812;-122.286;2023-02-03T07:27:17;14.20;66.50
72883;DHT22;61017;37.812;-122.286;2023-02-03T07:28:48;14.20;66.30
72883;DHT22;61017;37.812;-122.286;2023-02-03T07:30:19;14.20;66.10
72883;DHT22;61017;37.812;-122.286;2023-02-03T07:31:50;14.20;66.30
72883;DHT22;61017;37.812;-122.286;2023-02-03T07:33:21;14.20;66.30
72883;DHT22;61017;37.812;-122.286;2023-02-03T07:34:52;14.20;66.00
72883;DHT22;61017;37.812;-122.286;2023-02-03T07:36:23;14.20;65.80
72883;DHT22;61017;37.812;-122.286;2023-02-03T07:37:54;14.20;66.00
72883;DHT22;61017;37.812;-122.286;2023-02-03T07:39:25;14.20;66.30
72883;DHT22;61017;37.812;-122.286;2023-02-03T07:40:56;14.20;66.50
72883;DHT22;61017;37.812;-122.286;2023-02-03T07:42:27;14.20;66.40
72883;DHT22;61017;37.812;-122.286;2023-02-03T07:43:58;14.20;66.20
72883;DHT22;61017;37.812;-122.286;2023-02-03T07:45:30;14.20;66.00
72883;DHT22;61017;37.812;-122.286;2023-02-03T07:47:01;14.20;65.80
72883;DHT22;61017;37.812;-122.286;2023-02-03T07:48:32;14.20;65.70
72883;DHT22;61017;37.812;-122.286;2023-02-03T07:50:03;14.20;65.80
72883;DHT22;61017;37.812;-122.286;2023-02-03T07:51:34;14.20;65.80
72883;DHT22;61017;37.812;-122.286;2023-02-03T07:53:05;14.20;65.90
72883;DHT22;61017;37.812;-122.286;2023-02-03T07:54:36;14.20;66.10
72883;DHT22;61017;37.812;-122.286;2023-02-03T07:56:08;14.20;66.40
72883;DHT22;61017;37.812;-122.286;2023-02-03T07:57:39;14.20;66.50
72883;DHT22;61017;37.812;-122.286;2023-02-03T07:59:10;14.20;66.60
72883;DHT22;61017;37.812;-122.286;2023-02-03T08:00:41;14.20;66.60
72883;DHT22;61017;37.812;-122.286;2023-02-03T08:02:12;14.20;66.40
72883;DHT22;61017;37.812;-122.286;2023-02-03T08:03:43;14.20;66.30
72883;DHT22;61017;37.812;-122.286;2023-02-03T08:05:14;14.20;66.10
72883;DHT22;61017;37.812;-122.286;2023-02-03T08:06:45;14.20;66.00
72883;DHT22;61017;37.812;-122.286;2023-02-03T08:08:16;14.20;66.10
72883;DHT22;61017;37.812;-122.286;2023-02-03T08:09:48;14.20;65.90
72883;DHT22;61017;37.812;-122.286;2023-02-03T08:11:19;14.20;66.10
72883;DHT22;61017;37.812;-122.286;2023-02-03T08:12:53;14.20;66.10
72883;DHT22;61017;37.812;-122.286;2023-02-03T08:14:24;14.20;66.10
72883;DHT22;61017;37.812;-122.286;2023-02-03T08:15:55;14.20;66.30
72883;DHT22;61017;37.812;-122.286;2023-02-03T08:17:26;14.20;65.90
72883;DHT22;61017;37.812;-122.286;2023-02-03T08:18:57;14.20;65.90
72883;DHT22;61017;37.812;-122.286;2023-02-03T08:20:28;14.20;65.90
72883;DHT22;61017;37.812;-122.286;2023-02-03T08:22:00;14.20;65.90
72883;DHT22;61017;37.812;-122.286;2023-02-03T08:23:31;14.20;66.00
72883;DHT22;61017;37.812;-122.286;2023-02-03T08:25:02;14.20;66.20
72883;DHT22;61017;37.812;-122.286;2023-02-03T08:26:34;14.20;66.40
72883;DHT22;61017;37.812;-122.286;2023-02-03T08:28:06;14.20;66.40
72883;DHT22;61017;37.812;-122.286;2023-02-03T08:29:37;14.20;66.40
72883;DHT22;61017;37.812;-122.286;2023-02-03T08:31:09;14.20;66.30
72883;DHT22;61017;37.812;-122.286;2023-02-03T08:32:40;14.20;66.10
72883;DHT22;61017;37.812;-122.286;2023-02-03T08:34:11;14.20;66.30
72883;DHT22;61017;37.812;-122.286;2023-02-03T08:35:45;14.20;66.50
72883;DHT22;61017;37.812;-122.286;2023-02-03T08:37:17;14.20;66.70
72883;DHT22;61017;37.812;-122.286;2023-02-03T08:38:49;14.20;66.90
72883;DHT22;61017;37.812;-122.286;2023-02-03T08:40:20;14.20;67.00
72883;DHT22;61017;37.812;-122.286;2023-02-03T08:41:51;14.20;66.90
72883;DHT22;61017;37.812;-122.286;2023-02-03T08:43:22;14.20;66.90
72883;DHT22;61017;37.812;-122.286;2023-02-03T08:44:53;14.20;66.90
72883;DHT22;61017;37.812;-122.286;2023-02-03T08:46:24;14.20;67.10
72883;DHT22;61017;37.812;-122.286;2023-02-03T08:47:55;14.20;67.00
72883;DHT22;61017;37.812;-122.286;2023-02-03T08:49:27;14.20;66.90
72883;DHT22;61017;37.812;-122.286;2023-02-03T08:50:59;14.20;67.00
72883;DHT22;61017;37.812;-122.286;2023-02-03T08:52:30;14.20;67.10
72883;DHT22;61017;37.812;-122.286;2023-02-03T08:54:01;14.20;67.10
72883;DHT22;61017;37.812;-122.286;2023-02-03T08:55:32;14.20;67.00
72883;DHT22;61017;37.812;-122.286;2023-02-03T08:57:03;14.20;67.00
72883;DHT22;61017;37.812;-122.286;2023-02-03T08:58:34;14.20;67.00
72883;DHT22;61017;37.812;-122.286;2023-02-03T09:00:06;14.20;67.20
72883;DHT22;61017;37.812;-122.286;2023-02-03T09:01:37;14.20;67.30
72883;DHT22;61017;37.812;-122.286;2023-02-03T09:03:08;14.20;67.50
72883;DHT22;61017;37.812;-122.286;2023-02-03T09:04:39;14.20;67.60
72883;DHT22;61017;37.812;-122.286;2023-02-03T09:06:11;14.20;67.50
72883;DHT22;61017;37.812;-122.286;2023-02-03T09:07:42;14.20;67.40
72883;DHT22;61017;37.812;-122.286;2023-02-03T09:09:13;14.20;67.30
72883;DHT22;61017;37.812;-122.286;2023-02-03T09:10:44;14.20;67.30
72883;DHT22;61017;37.812;-122.286;2023-02-03T09:12:15;14.20;67.40
72883;DHT22;61017;37.812;-122.286;2023-02-03T09:13:46;14.20;67.20
72883;DHT22;61017;37.812;-122.286;2023-02-03T09:15:18;14.20;67.00
72883;DHT22;61017;37.812;-122.286;2023-02-03T09:16:49;14.20;67.00
72883;DHT22;61017;37.812;-122.286;2023-02-03T09:18:20;14.20;67.10
72883;DHT22;61017;37.812;-122.286;2023-02-03T09:19:51;14.20;67.00
72883;DHT22;61017;37.812;-122.286;2023-02-03T09:21:22;14.20;66.60
72883;DHT22;61017;37.812;-122.286;2023-02-03T09:22:53;14.20;66.60
72883;DHT22;61017;37.812;-122.286;2023-02-03T09:24:24;14.20;66.60
72883;DHT22;61017;37.812;-122.286;2023-02-03T09:25:55;14.20;66.60
72883;DHT22;61017;37.812;-122.286;2023-02-03T09:27:31;14.20;66.40
72883;DHT22;61017;37.812;-122.286;2023-02-03T09:29:02;14.20;66.40
72883;DHT22;61017;37.812;-122.286;2023-02-03T09:30:33;14.20;66.50
72883;DHT22;61017;37.812;-122.286;2023-02-03T09:32:04;14.20;66.50
72883;DHT22;61017;37.812;-122.286;2023-02-03T09:33:35;14.20;66.70
72883;DHT22;61017;37.812;-122.286;2023-02-03T09:35:06;14.20;66.80
72883;DHT22;61017;37.812;-122.286;2023-02-03T09:36:37;14.20;66.90
72883;DHT22;61017;37.812;-122.286;2023-02-03T09:38:08;14.20;66.90
72883;DHT22;61017;37.812;-122.286;2023-02-03T09:39:39;14.20;66.90